createdAt,value
2019-03-15T00:02:07.257Z,100787.36
2019-03-15T00:04:35.074Z,100783.92
2019-03-15T00:07:03.098Z,100789.66
2019-03-15T00:09:30.881Z,100791.80
2019-03-15T00:11:58.718Z,100799.73
2019-03-15T00:14:26.814Z,100800.80
2019-03-15T00:16:54.748Z,100801.70
2019-03-15T00:19:22.533Z,100803.20
2019-03-15T00:21:50.472Z,100801.38
2019-03-15T00:24:19.223Z,100804.59
2019-03-15T00:26:47.270Z,100810.61
2019-03-15T00:29:15.083Z,100812.74
2019-03-15T00:31:43.045Z,100811.17
2019-03-15T00:34:10.862Z,100812.30
2019-03-15T00:36:38.807Z,100804.80
2019-03-15T00:39:08.591Z,100802.66
2019-03-15T00:41:36.383Z,100801.52
2019-03-15T00:44:04.189Z,100804.36
2019-03-15T00:46:32.187Z,100806.83
2019-03-15T00:49:00.002Z,100807.43
2019-03-15T00:51:27.824Z,100802.22
2019-03-15T00:53:55.838Z,100794.27
2019-03-15T00:56:23.865Z,100790.95
2019-03-15T00:58:53.129Z,100796.60
2019-03-15T01:01:20.938Z,100795.64
2019-03-15T01:03:48.945Z,100789.19
2019-03-15T01:06:18.492Z,100794.84
2019-03-15T01:08:46.521Z,100786.95
2019-03-15T01:11:14.436Z,100782.78
2019-03-15T01:13:42.277Z,100786.26
2019-03-15T01:16:11.088Z,100779.87
2019-03-15T01:18:38.884Z,100779.22
2019-03-15T01:21:06.678Z,100774.78
2019-03-15T01:23:34.671Z,100772.96
2019-03-15T01:26:02.563Z,100770.41
2019-03-15T01:28:30.348Z,100766.02
2019-03-15T01:30:58.334Z,100765.95
2019-03-15T01:33:26.368Z,100768.22
2019-03-15T01:35:54.133Z,100746.91
2019-03-15T01:38:21.898Z,100753.28
2019-03-15T01:40:49.805Z,100744.48
2019-03-15T01:43:17.626Z,100754.79
2019-03-15T01:45:45.442Z,100752.23
2019-03-15T01:48:13.592Z,100731.59
2019-03-15T01:50:41.551Z,100718.89
2019-03-15T01:53:09.714Z,100728.41
2019-03-15T01:55:37.721Z,100722.88
2019-03-15T01:58:05.519Z,100731.02
2019-03-15T02:00:34.732Z,100714.69
2019-03-15T02:03:03.164Z,100729.61
2019-03-15T02:05:30.980Z,100725.45
2019-03-15T02:08:00.685Z,100716.39
2019-03-15T02:10:28.736Z,100717.80
2019-03-15T02:12:56.827Z,100712.70
2019-03-15T02:15:24.601Z,100711.23
2019-03-15T02:17:53.613Z,100707.49
2019-03-15T02:20:23.604Z,100705.19
2019-03-15T02:22:51.639Z,100698.02
2019-03-15T02:25:20.025Z,100702.45
2019-03-15T02:27:47.963Z,100698.95
2019-03-15T02:30:15.826Z,100696.34
2019-03-15T02:32:43.766Z,100690.79
2019-03-15T02:35:11.738Z,100697.16
2019-03-15T02:37:39.724Z,100687.73
2019-03-15T02:40:07.656Z,100685.48
2019-03-15T02:42:35.828Z,100673.66
2019-03-15T02:45:06.262Z,100663.70
2019-03-15T02:47:34.326Z,100657.80
2019-03-15T02:50:02.378Z,100655.73
2019-03-15T02:52:30.636Z,100656.70
2019-03-15T02:54:58.831Z,100677.45
2019-03-15T02:57:26.933Z,100668.00
2019-03-15T02:59:55.000Z,100674.72
2019-03-15T03:02:23.986Z,100678.24
2019-03-15T03:04:51.927Z,100673.97
2019-03-15T03:07:21.055Z,100666.42
2019-03-15T03:09:49.082Z,100656.97
2019-03-15T03:12:17.588Z,100645.76
2019-03-15T03:14:45.592Z,100639.81
2019-03-15T03:17:13.852Z,100630.69
2019-03-15T03:19:41.864Z,100633.13
2019-03-15T03:22:09.785Z,100634.37
2019-03-15T03:24:37.621Z,100628.91
2019-03-15T03:27:05.630Z,100626.63
2019-03-15T03:29:33.454Z,100624.03
2019-03-15T03:32:01.260Z,100628.18
2019-03-15T03:34:29.170Z,100619.72
2019-03-15T03:36:57.897Z,100621.11
2019-03-15T03:39:26.118Z,100622.41
2019-03-15T03:41:54.113Z,100623.28
2019-03-15T03:44:22.191Z,100618.06
2019-03-15T03:46:49.972Z,100620.91
2019-03-15T03:49:17.870Z,100606.09
2019-03-15T03:51:45.651Z,100607.58
2019-03-15T03:54:13.533Z,100612.92
2019-03-15T03:56:41.323Z,100607.27
2019-03-15T03:59:09.243Z,100605.48
2019-03-15T04:01:37.007Z,100598.81
2019-03-15T04:04:04.886Z,100594.84
2019-03-15T04:06:32.667Z,100592.98
2019-03-15T04:09:00.471Z,100599.29
2019-03-15T04:11:28.356Z,100599.73
2019-03-15T04:13:56.235Z,100599.37
2019-03-15T04:16:24.027Z,100590.98
2019-03-15T04:18:51.924Z,100597.29
2019-03-15T04:21:19.698Z,100583.94
2019-03-15T04:23:47.490Z,100583.00
2019-03-15T04:26:15.517Z,100570.42
2019-03-15T04:28:43.300Z,100565.42
2019-03-15T04:31:12.301Z,100559.42
2019-03-15T04:33:40.323Z,100558.20
2019-03-15T04:36:11.958Z,100557.97
2019-03-15T04:38:40.924Z,100567.04
2019-03-15T04:41:08.950Z,100569.42
2019-03-15T04:43:36.952Z,100556.97
2019-03-15T04:46:04.755Z,100557.43
2019-03-15T04:48:32.883Z,100557.81
2019-03-15T04:51:02.667Z,100555.13
2019-03-15T04:53:30.451Z,100553.53
2019-03-15T04:55:58.415Z,100545.08
2019-03-15T04:58:26.308Z,100541.53
2019-03-15T05:00:54.456Z,100535.41
2019-03-15T05:03:22.237Z,100536.81
2019-03-15T05:06:02.374Z,100527.34
2019-03-15T05:08:19.915Z,100519.08
2019-03-15T05:10:47.712Z,100521.59
2019-03-15T05:13:15.505Z,100518.75
2019-03-15T05:15:43.559Z,100512.29
2019-03-15T05:18:11.556Z,100508.83
2019-03-15T05:20:39.341Z,100503.83
2019-03-15T05:23:07.443Z,100497.44
2019-03-15T05:25:35.277Z,100497.63
2019-03-15T05:28:03.478Z,100489.16
2019-03-15T05:30:31.368Z,100482.59
2019-03-15T05:33:00.956Z,100479.08
2019-03-15T05:35:28.739Z,100476.54
2019-03-15T05:37:56.641Z,100474.57
2019-03-15T05:40:24.447Z,100468.27
2019-03-15T05:42:52.243Z,100461.70
2019-03-15T05:45:20.131Z,100464.58
2019-03-15T05:47:48.057Z,100468.33
2019-03-15T05:50:15.964Z,100461.02
2019-03-15T05:52:44.054Z,100462.50
2019-03-15T05:55:11.969Z,100455.05
2019-03-15T05:57:39.771Z,100451.16
2019-03-15T06:00:10.492Z,100443.91
2019-03-15T06:02:38.504Z,100434.78
2019-03-15T06:05:08.818Z,100432.89
2019-03-15T06:07:37.967Z,100424.64
2019-03-15T06:10:07.083Z,100425.91
2019-03-15T06:12:34.896Z,100425.03
2019-03-15T06:15:02.783Z,100423.30
2019-03-15T06:17:30.599Z,100417.83
2019-03-15T06:19:58.508Z,100414.38
2019-03-15T06:22:26.597Z,100407.91
2019-03-15T06:24:54.388Z,100408.86
2019-03-15T06:27:22.194Z,100407.61
2019-03-15T06:29:50.205Z,100402.78
2019-03-15T06:32:18.033Z,100402.44
2019-03-15T06:34:45.952Z,100395.81
2019-03-15T06:37:13.766Z,100391.95
2019-03-15T06:39:41.582Z,100388.21
2019-03-15T06:42:09.560Z,100384.98
2019-03-15T06:44:37.878Z,100382.73
2019-03-15T06:47:06.030Z,100381.26
2019-03-15T06:49:33.844Z,100374.97
2019-03-15T06:52:01.862Z,100374.80
2019-03-15T06:54:29.656Z,100363.45
2019-03-15T06:56:57.482Z,100363.13
2019-03-15T06:59:25.489Z,100366.58
2019-03-15T07:01:53.301Z,100374.45
2019-03-15T07:04:21.297Z,100370.27
2019-03-15T07:06:50.188Z,100369.88
2019-03-15T07:09:18.038Z,100371.05
2019-03-15T07:11:46.160Z,100370.66
2019-03-15T07:14:16.055Z,100363.27
2019-03-15T07:16:44.268Z,100362.27
2019-03-15T07:19:25.268Z,100348.22
2019-03-15T07:21:42.016Z,100351.48
2019-03-15T07:24:09.917Z,100342.67
2019-03-15T07:26:37.865Z,100335.70
2019-03-15T07:29:06.999Z,100328.23
2019-03-15T07:31:34.858Z,100329.42
2019-03-15T07:34:02.681Z,100326.12
2019-03-15T07:36:31.747Z,100331.05
2019-03-15T07:38:59.612Z,100332.16
2019-03-15T07:41:27.407Z,100331.50
2019-03-15T07:43:55.371Z,100331.70
2019-03-15T07:46:23.215Z,100334.07
2019-03-15T07:48:51.000Z,100326.83
2019-03-15T07:51:18.943Z,100332.94
2019-03-15T07:53:46.781Z,100334.53
2019-03-15T07:56:14.570Z,100341.45
2019-03-15T07:58:43.404Z,100348.09
2019-03-15T08:01:12.638Z,100338.30
2019-03-15T08:03:40.557Z,100338.88
2019-03-15T08:06:08.520Z,100332.34
2019-03-15T08:08:36.415Z,100354.30
2019-03-15T08:11:04.497Z,100348.14
2019-03-15T08:13:32.457Z,100347.84
2019-03-15T08:16:00.584Z,100358.41
2019-03-15T08:18:28.434Z,100346.34
2019-03-15T08:20:56.252Z,100341.13
2019-03-15T08:23:24.205Z,100352.45
2019-03-15T08:25:52.092Z,100348.72
2019-03-15T08:28:19.888Z,100353.31
2019-03-15T08:30:47.781Z,100359.02
2019-03-15T08:33:15.712Z,100352.66
2019-03-15T08:35:43.511Z,100343.05
2019-03-15T08:38:11.361Z,100354.91
2019-03-15T08:40:39.294Z,100378.47
2019-03-15T08:43:09.026Z,100373.78
2019-03-15T08:45:36.810Z,100381.16
2019-03-15T08:48:04.764Z,100390.79
2019-03-15T08:50:32.574Z,100387.92
2019-03-15T08:53:00.351Z,100405.86
2019-03-15T08:55:28.340Z,100402.49
2019-03-15T08:57:56.184Z,100394.37
2019-03-15T09:00:23.987Z,100403.78
2019-03-15T09:02:51.927Z,100410.06
2019-03-15T09:05:19.779Z,100412.02
2019-03-15T09:07:47.689Z,100401.14
2019-03-15T09:10:23.292Z,100402.38
2019-03-15T09:12:45.423Z,100413.22
2019-03-15T09:15:13.838Z,100416.65
2019-03-15T09:17:48.294Z,100428.07
2019-03-15T09:20:16.155Z,100430.48
2019-03-15T09:22:43.987Z,100418.27
2019-03-15T09:25:19.198Z,100429.03
2019-03-15T09:27:45.294Z,100421.55
2019-03-15T09:30:22.661Z,100431.38
2019-03-15T09:32:41.667Z,100432.58
2019-03-15T09:35:09.471Z,100432.14
2019-03-15T09:37:37.346Z,100445.16
2019-03-15T09:40:05.764Z,100439.66
2019-03-15T09:42:33.561Z,100454.89
2019-03-15T09:45:01.596Z,100454.33
2019-03-15T09:47:29.438Z,100453.40
2019-03-15T09:49:57.235Z,100443.41
2019-03-15T09:52:25.190Z,100451.44
2019-03-15T09:54:52.967Z,100443.66
2019-03-15T09:57:20.855Z,100453.59
2019-03-15T09:59:48.857Z,100452.38
2019-03-15T10:02:29.356Z,100458.30
2019-03-15T10:04:46.448Z,100456.62
2019-03-15T10:07:14.511Z,100454.02
2019-03-15T10:09:46.044Z,100461.78
2019-03-15T10:12:12.157Z,100477.17
2019-03-15T10:14:40.055Z,100473.72
2019-03-15T10:17:07.873Z,100478.48
2019-03-15T10:19:35.704Z,100486.12
2019-03-15T10:22:03.625Z,100484.75
2019-03-15T10:24:31.432Z,100482.41
2019-03-15T10:26:59.285Z,100471.33
2019-03-15T10:29:27.285Z,100475.88
2019-03-15T10:31:55.178Z,100469.61
2019-03-15T10:34:23.108Z,100481.77
2019-03-15T10:36:51.002Z,100495.61
2019-03-15T10:39:18.898Z,100478.75
2019-03-15T10:41:46.699Z,100468.02
2019-03-15T10:44:14.581Z,100478.38
2019-03-15T10:46:42.359Z,100481.69
2019-03-15T10:49:10.142Z,100485.77
2019-03-15T10:51:38.043Z,100488.59
2019-03-15T10:54:05.988Z,100505.25
2019-03-15T10:56:33.891Z,100478.25
2019-03-15T10:59:01.694Z,100491.80
2019-03-15T11:01:29.607Z,100506.73
2019-03-15T11:03:57.657Z,100504.11
2019-03-15T11:06:25.472Z,100498.69
2019-03-15T11:08:53.493Z,100507.80
2019-03-15T11:11:21.460Z,100502.86
2019-03-15T11:13:49.317Z,100504.94
2019-03-15T11:16:17.241Z,100505.48
2019-03-15T11:18:45.218Z,100522.83
2019-03-15T11:21:13.014Z,100537.34
2019-03-15T11:23:40.900Z,100512.91
2019-03-15T11:26:14.015Z,100514.30
2019-03-15T11:28:38.646Z,100509.01
2019-03-15T11:31:06.646Z,100497.26
2019-03-15T11:33:34.589Z,100486.27
2019-03-15T11:36:02.498Z,100498.80
2019-03-15T11:38:30.337Z,100493.27
2019-03-15T11:40:58.308Z,100486.50
2019-03-15T11:43:26.092Z,100481.13
2019-03-15T11:45:53.907Z,100496.59
2019-03-15T11:48:22.030Z,100506.34
2019-03-15T11:50:50.002Z,100498.79
2019-03-15T11:53:18.999Z,100507.16
2019-03-15T11:55:46.995Z,100492.81
2019-03-15T11:58:14.948Z,100485.06
2019-03-15T12:00:42.775Z,100496.78
2019-03-15T12:03:11.914Z,100490.28
2019-03-15T12:05:39.729Z,100495.40
2019-03-15T12:08:07.805Z,100485.33
2019-03-15T12:10:35.726Z,100477.36
2019-03-15T12:13:03.578Z,100490.09
2019-03-15T12:15:31.386Z,100490.39
2019-03-15T12:18:01.179Z,100498.59
2019-03-15T12:20:29.005Z,100479.02
2019-03-15T12:22:57.015Z,100480.89
2019-03-15T12:25:26.921Z,100482.04
2019-03-15T12:27:56.653Z,100481.99
2019-03-15T12:30:24.644Z,100489.55
2019-03-15T12:32:52.504Z,100488.91
2019-03-15T12:35:20.430Z,100499.33
2019-03-15T12:37:48.260Z,100477.03
2019-03-15T12:40:16.302Z,100456.61
2019-03-15T12:42:44.251Z,100456.62
2019-03-15T12:45:12.167Z,100449.69
2019-03-15T12:47:39.988Z,100447.77
2019-03-15T12:50:08.249Z,100450.28
2019-03-15T12:52:47.177Z,100448.47
2019-03-15T12:55:07.151Z,100461.06
2019-03-15T12:57:35.139Z,100479.09
2019-03-15T13:00:04.078Z,100482.92
2019-03-15T13:02:32.084Z,100486.22
2019-03-15T13:05:00.010Z,100470.77
2019-03-15T13:07:28.033Z,100468.17
2019-03-15T13:09:55.976Z,100470.72
2019-03-15T13:12:23.781Z,100473.34
2019-03-15T13:14:51.617Z,100457.07
2019-03-15T13:17:19.610Z,100475.24
2019-03-15T13:19:55.175Z,100486.59
2019-03-15T13:22:18.370Z,100455.81
2019-03-15T13:24:46.446Z,100467.67
2019-03-15T13:27:14.570Z,100459.82
2019-03-15T13:29:42.372Z,100459.84
2019-03-15T13:32:11.290Z,100458.91
2019-03-15T13:34:39.329Z,100470.78
2019-03-15T13:37:07.239Z,100459.02
2019-03-15T13:39:35.037Z,100456.81
2019-03-15T13:42:03.036Z,100458.72
2019-03-15T13:44:30.853Z,100459.96
2019-03-15T13:46:58.693Z,100450.13
2019-03-15T13:49:26.695Z,100443.25
2019-03-15T13:51:54.544Z,100462.44
2019-03-15T13:54:22.353Z,100462.33
2019-03-15T13:56:50.319Z,100472.33
2019-03-15T13:59:18.161Z,100463.38
2019-03-15T14:01:45.995Z,100465.02
2019-03-15T14:04:13.977Z,100487.95
2019-03-15T14:06:41.959Z,100479.42
2019-03-15T14:09:09.777Z,100486.72
2019-03-15T14:11:38.720Z,100487.45
2019-03-15T14:14:06.802Z,100503.13
2019-03-15T14:16:34.646Z,100484.15
2019-03-15T14:19:02.480Z,100489.55
2019-03-15T14:21:31.372Z,100501.31
2019-03-15T14:23:59.298Z,100493.38
2019-03-15T14:26:27.118Z,100501.47
2019-03-15T14:28:55.253Z,100503.33
2019-03-15T14:31:23.100Z,100492.56
2019-03-15T14:33:51.201Z,100510.88
2019-03-15T14:36:19.171Z,100509.05
2019-03-15T14:38:47.140Z,100515.33
2019-03-15T14:41:15.065Z,100515.24
2019-03-15T14:43:43.168Z,100523.03
2019-03-15T14:46:12.263Z,100520.66
2019-03-15T14:48:40.571Z,100515.22
2019-03-15T14:51:08.370Z,100523.09
2019-03-15T14:53:36.286Z,100536.69
2019-03-15T14:56:04.119Z,100540.62
2019-03-15T14:58:31.912Z,100544.09
2019-03-15T15:00:59.934Z,100540.09
2019-03-15T15:03:29.753Z,100551.06
2019-03-15T15:05:57.710Z,100550.95
2019-03-15T15:08:26.923Z,100552.91
2019-03-15T15:10:54.869Z,100568.34
2019-03-15T15:13:22.814Z,100560.98
2019-03-15T15:15:50.853Z,100572.53
2019-03-15T15:18:18.959Z,100577.48
2019-03-15T15:20:46.775Z,100560.64
2019-03-15T15:23:14.779Z,100577.96
2019-03-15T15:25:42.694Z,100578.78
2019-03-15T15:28:10.762Z,100584.94
2019-03-15T15:30:38.579Z,100600.98
2019-03-15T15:33:06.560Z,100586.88
2019-03-15T15:35:34.646Z,100578.19
2019-03-15T15:38:02.459Z,100567.42
2019-03-15T15:40:30.435Z,100598.22
2019-03-15T15:42:58.453Z,100593.25
2019-03-15T15:45:29.617Z,100593.53
2019-03-15T15:47:56.067Z,100603.17
2019-03-15T15:50:24.006Z,100592.70
2019-03-15T15:52:51.889Z,100597.17
2019-03-15T15:55:19.797Z,100600.59
2019-03-15T15:57:47.743Z,100603.72
2019-03-15T16:00:15.596Z,100592.98
2019-03-15T16:02:43.463Z,100587.50
2019-03-15T16:05:11.693Z,100593.34
2019-03-15T16:07:40.609Z,100581.53
2019-03-15T16:10:09.806Z,100584.78
2019-03-15T16:12:37.817Z,100583.47
2019-03-15T16:15:07.236Z,100581.12
2019-03-15T16:17:35.033Z,100594.05
2019-03-15T16:20:03.799Z,100589.42
2019-03-15T16:22:31.688Z,100594.41
2019-03-15T16:24:59.589Z,100592.73
2019-03-15T16:27:27.421Z,100596.84
2019-03-15T16:29:55.489Z,100589.70
2019-03-15T16:32:23.423Z,100617.77
2019-03-15T16:34:51.297Z,100615.48
2019-03-15T16:37:19.392Z,100620.63
2019-03-15T16:39:47.424Z,100622.44
2019-03-15T16:42:15.382Z,100614.70
2019-03-15T16:44:43.271Z,100623.92
2019-03-15T16:47:11.208Z,100620.00
2019-03-15T16:49:39.130Z,100633.22
2019-03-15T16:52:06.955Z,100638.64
2019-03-15T16:54:34.906Z,100633.38
2019-03-15T16:57:02.806Z,100628.30
2019-03-15T16:59:30.740Z,100641.33
2019-03-15T17:02:00.009Z,100641.45
2019-03-15T17:04:27.858Z,100651.12
2019-03-15T17:06:55.901Z,100639.18
2019-03-15T17:09:23.730Z,100645.97
2019-03-15T17:11:51.710Z,100649.72
2019-03-15T17:14:25.471Z,100651.92
2019-03-15T17:16:49.583Z,100652.16
2019-03-15T17:19:17.402Z,100654.45
2019-03-15T17:21:45.355Z,100672.59
2019-03-15T17:24:13.370Z,100677.18
2019-03-15T17:26:41.289Z,100682.62
2019-03-15T17:29:09.079Z,100704.05
2019-03-15T17:31:36.992Z,100690.92
2019-03-15T17:34:05.167Z,100692.25
2019-03-15T17:36:33.112Z,100698.23
2019-03-15T17:39:01.036Z,100700.80
2019-03-15T17:41:29.025Z,100706.06
2019-03-15T17:43:58.643Z,100712.98
2019-03-15T17:46:26.743Z,100727.30
2019-03-15T17:48:54.580Z,100720.66
2019-03-15T17:51:22.412Z,100719.09
2019-03-15T17:53:50.376Z,100733.27
2019-03-15T17:56:18.355Z,100744.47
2019-03-15T17:58:48.746Z,100740.14
2019-03-15T18:01:17.746Z,100748.48
2019-03-15T18:03:47.484Z,100751.52
2019-03-15T18:06:15.904Z,100756.91
2019-03-15T18:08:44.139Z,100777.92
2019-03-15T18:11:12.036Z,100780.69
2019-03-15T18:13:40.114Z,100784.80
2019-03-15T18:16:08.334Z,100784.07
2019-03-15T18:18:36.339Z,100797.50
2019-03-15T18:21:04.122Z,100806.09
2019-03-15T18:23:31.945Z,100807.06
2019-03-15T18:25:59.970Z,100814.14
2019-03-15T18:28:29.841Z,100809.82
2019-03-15T18:30:59.190Z,100818.95
2019-03-15T18:33:27.559Z,100822.42
2019-03-15T18:35:55.658Z,100819.07
2019-03-15T18:38:23.902Z,100809.52
2019-03-15T18:40:52.359Z,100810.42
2019-03-15T18:43:20.377Z,100814.62
2019-03-15T18:45:48.201Z,100817.28
2019-03-15T18:48:16.039Z,100820.42
2019-03-15T18:50:43.986Z,100834.59
2019-03-15T18:53:12.495Z,100839.66
2019-03-15T18:55:40.317Z,100838.91
2019-03-15T18:58:08.296Z,100839.16
2019-03-15T19:00:36.297Z,100839.78
2019-03-15T19:03:04.262Z,100842.33
2019-03-15T19:05:32.273Z,100845.17
2019-03-15T19:08:00.455Z,100841.92
2019-03-15T19:10:28.460Z,100847.70
2019-03-15T19:12:59.208Z,100856.20
2019-03-15T19:15:27.106Z,100867.51
2019-03-15T19:17:55.200Z,100864.50
2019-03-15T19:20:24.306Z,100867.98
2019-03-15T19:22:52.148Z,100869.07
2019-03-15T19:25:20.314Z,100878.23
2019-03-15T19:27:48.837Z,100888.47
2019-03-15T19:30:16.810Z,100894.97
2019-03-15T19:32:44.642Z,100908.20
2019-03-15T19:35:12.624Z,100915.59
2019-03-15T19:37:40.609Z,100917.20
2019-03-15T19:40:11.075Z,100920.67
2019-03-15T19:42:45.887Z,100914.34
2019-03-15T19:45:14.379Z,100906.27
2019-03-15T19:47:42.338Z,100908.35
2019-03-15T19:50:12.608Z,100911.48
2019-03-15T19:52:40.604Z,100912.56
2019-03-15T19:55:10.204Z,100915.49
2019-03-15T19:57:38.048Z,100914.50
2019-03-15T20:00:08.884Z,100915.67
2019-03-15T20:02:36.726Z,100925.13
2019-03-15T20:05:05.222Z,100923.37
2019-03-15T20:07:33.294Z,100930.03
2019-03-15T20:10:01.461Z,100946.38
2019-03-15T20:12:29.320Z,100946.52
2019-03-15T20:14:58.841Z,100951.75
2019-03-15T20:17:27.029Z,100945.28
2019-03-15T20:19:55.098Z,100951.59
2019-03-15T20:22:23.412Z,100954.22
2019-03-15T20:24:51.445Z,100946.81
2019-03-15T20:27:20.731Z,100946.88
2019-03-15T20:29:48.706Z,100957.72
2019-03-15T20:32:16.838Z,100953.20
2019-03-15T20:34:45.954Z,100949.54
2019-03-15T20:37:14.585Z,100953.83
2019-03-15T20:39:42.677Z,100937.58
2019-03-15T20:42:10.968Z,100943.80
2019-03-15T20:44:39.442Z,100941.81
2019-03-15T20:47:07.332Z,100956.08
2019-03-15T20:49:36.590Z,100960.55
2019-03-15T20:52:08.391Z,100957.37
2019-03-15T20:54:36.294Z,100964.88
2019-03-15T20:57:04.437Z,100962.19
2019-03-15T20:59:32.562Z,100971.15
2019-03-15T21:02:03.265Z,100963.06
2019-03-15T21:04:31.284Z,100968.20
2019-03-15T21:06:59.150Z,100975.10
2019-03-15T21:09:27.903Z,100968.64
2019-03-15T21:11:56.263Z,100973.13
2019-03-15T21:14:24.572Z,100974.45
2019-03-15T21:16:52.430Z,100986.38
2019-03-15T21:19:20.631Z,100987.33
2019-03-15T21:21:49.882Z,100993.22
2019-03-15T21:24:17.825Z,100986.67
2019-03-15T21:26:45.844Z,100990.52
2019-03-15T21:29:13.781Z,100986.72
2019-03-15T21:31:41.743Z,100996.98
2019-03-15T21:34:09.763Z,101002.92
2019-03-15T21:36:37.578Z,101000.72
2019-03-15T21:39:07.645Z,101014.78
2019-03-15T21:41:35.513Z,100997.41
2019-03-15T21:44:03.347Z,100997.45
2019-03-15T21:46:31.271Z,101001.81
2019-03-15T21:48:59.155Z,101004.58
2019-03-15T21:51:29.252Z,101005.72
2019-03-15T21:53:57.117Z,101005.38
2019-03-15T21:56:25.046Z,101013.74
2019-03-15T21:58:52.909Z,101015.44
2019-03-15T22:01:20.873Z,101016.17
2019-03-15T22:03:50.297Z,101016.25
2019-03-15T22:06:18.132Z,101021.00
2019-03-15T22:08:46.113Z,101028.91
2019-03-15T22:11:21.113Z,101023.28
2019-03-15T22:13:43.714Z,101027.28
2019-03-15T22:16:11.807Z,101028.05
2019-03-15T22:18:39.678Z,101038.20
2019-03-15T22:21:07.485Z,101036.13
2019-03-15T22:23:35.431Z,101034.47
2019-03-15T22:26:03.278Z,101041.17
2019-03-15T22:28:31.370Z,101045.27
2019-03-15T22:30:59.350Z,101034.79
2019-03-15T22:33:27.289Z,101050.69
2019-03-15T22:35:55.133Z,101049.49
2019-03-15T22:38:26.502Z,101060.13
2019-03-15T22:40:53.086Z,101057.69
2019-03-15T22:43:21.329Z,101062.98
2019-03-15T22:45:49.220Z,101067.36
2019-03-15T22:48:17.260Z,101068.94
2019-03-15T22:50:46.440Z,101068.40
2019-03-15T22:53:14.479Z,101077.87
2019-03-15T22:55:42.427Z,101074.80
2019-03-15T22:58:10.618Z,101084.88
2019-03-15T23:00:40.108Z,101079.12
2019-03-15T23:03:08.725Z,101089.16
2019-03-15T23:05:36.764Z,101085.98
2019-03-15T23:08:05.895Z,101094.13
2019-03-15T23:10:35.256Z,101085.25
2019-03-15T23:13:04.586Z,101095.33
2019-03-15T23:15:32.452Z,101101.70
2019-03-15T23:18:00.299Z,101104.25
2019-03-15T23:20:28.322Z,101106.16
2019-03-15T23:22:56.188Z,101100.72
2019-03-15T23:25:24.713Z,101101.13
2019-03-15T23:27:54.055Z,101095.05
2019-03-15T23:30:23.709Z,101102.23
2019-03-15T23:32:53.163Z,101108.98
2019-03-15T23:35:21.141Z,101111.91
2019-03-15T23:37:49.031Z,101108.55
2019-03-15T23:40:16.867Z,101105.92
2019-03-15T23:42:45.267Z,101111.55
2019-03-15T23:45:13.109Z,101104.11
2019-03-15T23:47:41.223Z,101103.20
2019-03-15T23:50:09.333Z,101107.30
2019-03-15T23:52:37.158Z,101110.31
2019-03-15T23:55:05.787Z,101120.77
2019-03-15T23:57:33.587Z,101120.12
